createdAt,value
2023-12-21T00:00:28.125Z,7.20
2023-12-21T00:03:15.498Z,7.20
2023-12-21T00:06:05.363Z,7.20
2023-12-21T00:08:55.771Z,7.20
2023-12-21T00:11:43.245Z,7.30
2023-12-21T00:14:31.740Z,7.30
2023-12-21T00:17:19.399Z,7.30
2023-12-21T00:20:07.571Z,7.30
2023-12-21T00:22:55.040Z,7.30
2023-12-21T00:25:42.365Z,7.30
2023-12-21T00:28:29.787Z,7.40
2023-12-21T00:31:17.176Z,7.40
2023-12-21T00:34:04.664Z,7.40
2023-12-21T00:36:52.250Z,7.40
2023-12-21T00:39:39.588Z,7.40
2023-12-21T00:42:26.905Z,7.50
2023-12-21T00:45:14.256Z,7.40
2023-12-21T00:48:01.710Z,7.50
2023-12-21T00:50:49.116Z,7.40
2023-12-21T00:53:36.606Z,7.40
2023-12-21T00:56:23.995Z,7.40
2023-12-21T00:59:11.340Z,7.40
2023-12-21T01:01:58.894Z,7.30
2023-12-21T01:04:46.532Z,7.30
2023-12-21T01:07:34.007Z,7.30
2023-12-21T01:10:21.556Z,7.30
2023-12-21T01:13:11.694Z,7.20
2023-12-21T01:15:59.166Z,7.20
2023-12-21T01:18:46.576Z,7.20
2023-12-21T01:21:33.976Z,7.20
2023-12-21T01:24:21.270Z,7.20
2023-12-21T01:27:16.048Z,7.20
2023-12-21T01:30:09.941Z,7.20
2023-12-21T01:32:57.491Z,7.20
2023-12-21T01:35:44.899Z,7.30
2023-12-21T01:38:32.207Z,7.20
2023-12-21T01:41:19.773Z,7.30
2023-12-21T01:44:07.162Z,7.30
2023-12-21T01:46:54.578Z,7.30
2023-12-21T01:49:43.537Z,7.30
2023-12-21T01:52:31.178Z,7.40
2023-12-21T01:55:18.750Z,7.40
2023-12-21T01:58:06.680Z,7.40
2023-12-21T02:00:58.225Z,7.40
2023-12-21T02:03:45.961Z,7.40
2023-12-21T02:06:33.395Z,7.40
2023-12-21T02:09:20.798Z,7.50
2023-12-21T02:12:08.360Z,7.50
2023-12-21T02:14:55.761Z,7.50
2023-12-21T02:17:47.575Z,7.50
2023-12-21T02:20:35.721Z,7.50
2023-12-21T02:23:24.281Z,7.50
2023-12-21T02:26:12.407Z,7.50
2023-12-21T02:28:59.791Z,7.50
2023-12-21T02:31:47.321Z,7.50
2023-12-21T02:34:34.925Z,7.50
2023-12-21T02:37:22.348Z,7.50
2023-12-21T02:40:10.397Z,7.50
2023-12-21T02:42:57.772Z,7.50
2023-12-21T02:45:46.258Z,7.50
2023-12-21T02:48:33.852Z,7.50
2023-12-21T02:51:21.290Z,7.50
2023-12-21T02:54:08.686Z,7.50
2023-12-21T02:56:56.174Z,7.50
2023-12-21T02:59:47.342Z,7.50
2023-12-21T03:02:34.751Z,7.50
2023-12-21T03:05:23.840Z,7.50
2023-12-21T03:08:11.295Z,7.50
2023-12-21T03:10:58.665Z,7.50
2023-12-21T03:13:46.017Z,7.50
2023-12-21T03:16:35.273Z,7.60
2023-12-21T03:19:22.975Z,7.50
2023-12-21T03:22:10.389Z,7.50
2023-12-21T03:24:57.770Z,7.50
2023-12-21T03:27:45.149Z,7.50
2023-12-21T03:30:32.650Z,7.60
2023-12-21T03:33:20.028Z,7.60
2023-12-21T03:36:07.820Z,7.60
2023-12-21T03:38:55.173Z,7.60
2023-12-21T03:41:42.564Z,7.60
2023-12-21T03:44:30.704Z,7.70
2023-12-21T03:47:18.237Z,7.70
2023-12-21T03:50:06.088Z,7.70
2023-12-21T03:52:53.469Z,7.70
2023-12-21T03:55:41.093Z,7.70
2023-12-21T03:58:28.607Z,7.70
2023-12-21T04:01:24.792Z,7.70
2023-12-21T04:04:12.336Z,7.70
2023-12-21T04:06:59.929Z,7.60
2023-12-21T04:09:47.274Z,7.60
2023-12-21T04:12:34.605Z,7.60
2023-12-21T04:15:21.954Z,7.50
2023-12-21T04:18:09.577Z,7.50
2023-12-21T04:20:59.113Z,7.50
2023-12-21T04:23:47.953Z,7.50
2023-12-21T04:26:35.361Z,7.50
2023-12-21T04:29:22.755Z,7.40
2023-12-21T04:32:10.247Z,7.40
2023-12-21T04:34:57.738Z,7.40
2023-12-21T04:37:45.115Z,7.30
2023-12-21T04:40:32.496Z,7.30
2023-12-21T04:43:20.494Z,7.30
2023-12-21T04:46:07.877Z,7.30
2023-12-21T04:48:55.306Z,7.30
2023-12-21T04:51:42.732Z,7.30
2023-12-21T04:54:30.033Z,7.30
2023-12-21T04:57:20.223Z,7.30
2023-12-21T05:00:09.476Z,7.30
2023-12-21T05:02:57.131Z,7.30
2023-12-21T05:05:44.611Z,7.40
2023-12-21T05:08:32.120Z,7.40
2023-12-21T05:11:19.584Z,7.40
2023-12-21T05:14:06.956Z,7.50
2023-12-21T05:16:54.344Z,7.50
2023-12-21T05:19:43.801Z,7.50
2023-12-21T05:22:31.545Z,7.60
2023-12-21T05:25:21.161Z,7.50
2023-12-21T05:28:08.955Z,7.60
2023-12-21T05:30:56.441Z,7.50
2023-12-21T05:33:43.919Z,7.60
2023-12-21T05:36:31.360Z,7.60
2023-12-21T05:39:20.767Z,7.70
2023-12-21T05:42:08.116Z,7.70
2023-12-21T05:44:55.422Z,7.70
2023-12-21T05:47:42.790Z,7.70
2023-12-21T05:50:30.080Z,7.70
2023-12-21T05:53:17.473Z,7.70
2023-12-21T05:56:05.404Z,7.70
2023-12-21T05:58:52.824Z,7.70
2023-12-21T06:01:41.049Z,7.70
2023-12-21T06:04:28.599Z,7.80
2023-12-21T06:07:16.080Z,7.80
2023-12-21T06:10:03.661Z,7.80
2023-12-21T06:12:51.191Z,7.80
2023-12-21T06:15:38.892Z,7.80
2023-12-21T06:18:27.185Z,7.80
2023-12-21T06:21:14.583Z,7.90
2023-12-21T06:24:01.968Z,7.90
2023-12-21T06:26:49.323Z,7.90
2023-12-21T06:29:36.809Z,7.90
2023-12-21T06:32:25.754Z,7.80
2023-12-21T06:35:14.484Z,7.80
2023-12-21T06:38:02.051Z,7.70
2023-12-21T06:40:51.921Z,7.60
2023-12-21T06:43:39.304Z,7.60
2023-12-21T06:46:27.083Z,7.60
2023-12-21T06:49:15.397Z,7.50
2023-12-21T06:52:03.212Z,7.50
2023-12-21T06:54:50.559Z,7.50
2023-12-21T06:57:37.885Z,7.40
2023-12-21T07:00:25.243Z,7.40
2023-12-21T07:03:12.595Z,7.40
2023-12-21T07:05:59.889Z,7.40
2023-12-21T07:08:47.247Z,7.40
2023-12-21T07:11:34.642Z,7.50
2023-12-21T07:14:22.040Z,7.50
2023-12-21T07:17:09.729Z,7.50
2023-12-21T07:19:57.594Z,7.50
2023-12-21T07:22:45.216Z,7.50
2023-12-21T07:25:32.805Z,7.50
2023-12-21T07:28:20.184Z,7.50
2023-12-21T07:31:07.596Z,7.40
2023-12-21T07:33:56.162Z,7.40
2023-12-21T07:36:43.505Z,7.40
2023-12-21T07:39:30.933Z,7.40
2023-12-21T07:42:18.900Z,7.40
2023-12-21T07:45:06.879Z,7.40
2023-12-21T07:47:54.186Z,7.40
2023-12-21T07:50:41.538Z,7.30
2023-12-21T07:53:28.942Z,7.30
2023-12-21T07:56:18.048Z,7.20
2023-12-21T07:59:08.006Z,7.10
2023-12-21T08:01:56.341Z,7.10
2023-12-21T08:04:43.902Z,7.00
2023-12-21T08:07:31.450Z,7.00
2023-12-21T08:10:19.837Z,7.00
2023-12-21T08:13:09.957Z,6.90
2023-12-21T08:15:57.294Z,6.90
2023-12-21T08:18:45.600Z,7.00
2023-12-21T08:21:33.029Z,7.00
2023-12-21T08:24:20.392Z,7.00
2023-12-21T08:27:08.557Z,7.00
2023-12-21T08:29:55.997Z,7.00
2023-12-21T08:32:47.323Z,7.10
2023-12-21T08:35:34.852Z,7.10
2023-12-21T08:38:22.230Z,7.20
2023-12-21T08:41:09.725Z,7.20
2023-12-21T08:43:57.247Z,7.20
2023-12-21T08:46:45.318Z,7.20
2023-12-21T08:49:33.316Z,7.20
2023-12-21T08:52:22.033Z,7.20
2023-12-21T08:55:13.372Z,7.20
2023-12-21T08:58:01.390Z,7.10
2023-12-21T09:00:48.858Z,7.10
2023-12-21T09:03:36.393Z,7.10
2023-12-21T09:06:23.715Z,7.10
2023-12-21T09:09:11.015Z,7.00
2023-12-21T09:11:58.657Z,7.10
2023-12-21T09:14:46.322Z,7.10
2023-12-21T09:17:33.716Z,7.10
2023-12-21T09:20:21.102Z,7.10
2023-12-21T09:23:08.589Z,7.10
2023-12-21T09:25:57.045Z,7.00
2023-12-21T09:28:44.940Z,7.00
2023-12-21T09:31:33.305Z,7.10
2023-12-21T09:34:20.823Z,7.10
2023-12-21T09:37:08.509Z,7.10
2023-12-21T09:39:57.853Z,7.20
2023-12-21T09:42:57.643Z,7.20
2023-12-21T09:45:52.702Z,7.20
2023-12-21T09:48:44.121Z,7.30
2023-12-21T09:51:34.283Z,7.30
2023-12-21T09:54:22.668Z,7.30
2023-12-21T09:57:10.763Z,7.30
2023-12-21T09:59:59.290Z,7.40
2023-12-21T10:02:46.979Z,7.50
2023-12-21T10:05:34.957Z,7.60
2023-12-21T10:08:22.803Z,7.70
2023-12-21T10:11:10.392Z,7.70
2023-12-21T10:13:58.874Z,7.80
2023-12-21T10:16:46.996Z,7.80
2023-12-21T10:19:34.626Z,7.90
2023-12-21T10:22:22.607Z,7.90
2023-12-21T10:25:14.304Z,7.90
2023-12-21T10:28:05.994Z,8.00
2023-12-21T10:30:58.660Z,8.00
2023-12-21T10:33:47.238Z,8.00
2023-12-21T10:36:34.783Z,8.10
2023-12-21T10:39:23.800Z,8.20
2023-12-21T10:42:11.643Z,8.30
2023-12-21T10:45:02.207Z,8.20
2023-12-21T10:47:55.299Z,8.30
2023-12-21T10:50:48.869Z,8.30
2023-12-21T10:53:38.948Z,8.30
2023-12-21T10:56:30.719Z,8.40
2023-12-21T10:59:22.092Z,8.40
2023-12-21T11:02:13.513Z,8.40
2023-12-21T11:05:01.600Z,8.40
2023-12-21T11:07:54.559Z,8.50
2023-12-21T11:10:42.358Z,8.50
2023-12-21T11:13:29.917Z,8.60
2023-12-21T11:16:18.817Z,8.70
2023-12-21T11:19:08.879Z,8.70
2023-12-21T11:21:57.345Z,8.80
2023-12-21T11:24:45.953Z,8.90
2023-12-21T11:27:33.793Z,8.90
2023-12-21T11:30:29.059Z,9.00
2023-12-21T11:33:16.630Z,8.90
2023-12-21T11:36:04.449Z,8.90
2023-12-21T11:38:53.639Z,8.90
2023-12-21T11:42:10.633Z,8.90
2023-12-21T11:45:03.056Z,8.90
2023-12-21T11:47:51.724Z,8.80
2023-12-21T11:50:39.187Z,8.80
2023-12-21T11:53:36.206Z,8.80
2023-12-21T11:56:43.375Z,8.80
2023-12-21T11:59:31.105Z,8.70
2023-12-21T12:02:18.890Z,8.70
2023-12-21T12:05:06.846Z,8.60
2023-12-21T12:07:55.377Z,8.60
2023-12-21T12:10:44.154Z,8.60
2023-12-21T12:13:33.724Z,8.60
2023-12-21T12:16:21.088Z,8.60
2023-12-21T12:19:12.445Z,8.60
2023-12-21T12:21:59.995Z,8.50
2023-12-21T12:24:50.647Z,8.60
2023-12-21T12:27:38.262Z,8.60
2023-12-21T12:30:26.622Z,8.50
2023-12-21T12:33:14.467Z,8.50
2023-12-21T12:36:06.083Z,8.50
2023-12-21T12:38:56.264Z,8.40
2023-12-21T12:41:43.740Z,8.40
2023-12-21T12:44:32.205Z,8.40
2023-12-21T12:47:21.487Z,8.30
2023-12-21T12:50:12.647Z,8.30
2023-12-21T12:52:59.969Z,8.30
2023-12-21T12:55:52.211Z,8.30
2023-12-21T12:58:52.026Z,8.30
2023-12-21T13:01:45.785Z,8.20
2023-12-21T13:04:33.308Z,8.20
2023-12-21T13:07:24.662Z,8.20
2023-12-21T13:10:14.006Z,8.20
2023-12-21T13:13:02.019Z,8.20
2023-12-21T13:15:50.108Z,8.10
2023-12-21T13:18:38.493Z,8.10
2023-12-21T13:21:26.404Z,8.10
2023-12-21T13:24:14.869Z,8.10
2023-12-21T13:27:02.416Z,8.10
2023-12-21T13:29:49.871Z,8.10
2023-12-21T13:32:37.627Z,8.10
2023-12-21T13:35:25.101Z,8.00
2023-12-21T13:38:13.299Z,8.00
2023-12-21T13:41:00.930Z,7.90
2023-12-21T13:43:51.578Z,7.90
2023-12-21T13:46:40.760Z,7.90
2023-12-21T13:49:28.384Z,7.90
2023-12-21T13:52:16.665Z,7.90
2023-12-21T13:55:04.400Z,7.90
2023-12-21T13:57:52.014Z,7.90
2023-12-21T14:00:39.514Z,7.90
2023-12-21T14:03:26.937Z,7.90
2023-12-21T14:06:14.471Z,7.90
2023-12-21T14:09:01.955Z,7.80
2023-12-21T14:11:49.838Z,7.80
2023-12-21T14:14:37.261Z,7.70
2023-12-21T14:17:27.090Z,7.70
2023-12-21T14:20:14.700Z,7.70
2023-12-21T14:23:02.119Z,7.70
2023-12-21T14:25:50.665Z,7.60
2023-12-21T14:28:43.992Z,7.70
2023-12-21T14:31:38.359Z,7.70
2023-12-21T14:34:26.667Z,7.70
2023-12-21T14:37:15.817Z,7.70
2023-12-21T14:40:04.861Z,7.70
2023-12-21T14:42:54.342Z,7.70
2023-12-21T14:45:42.069Z,7.70
2023-12-21T14:48:30.514Z,7.70
2023-12-21T14:51:19.485Z,7.70
2023-12-21T14:54:07.298Z,7.70
2023-12-21T14:56:54.648Z,7.70
2023-12-21T14:59:42.062Z,7.70
2023-12-21T15:02:29.455Z,7.70
2023-12-21T15:05:17.706Z,7.70
2023-12-21T15:08:09.590Z,7.70
2023-12-21T15:10:57.531Z,7.70
2023-12-21T15:13:45.830Z,7.70
2023-12-21T15:16:34.831Z,7.70
2023-12-21T15:19:22.258Z,7.70
2023-12-21T15:22:09.718Z,7.70
2023-12-21T15:24:57.096Z,7.70
2023-12-21T15:27:44.832Z,7.60
2023-12-21T15:30:33.477Z,7.60
2023-12-21T15:33:22.022Z,7.60
2023-12-21T15:36:13.655Z,7.60
2023-12-21T15:39:01.683Z,7.60
2023-12-21T15:41:49.139Z,7.60
2023-12-21T15:44:36.557Z,7.60
2023-12-21T15:47:24.111Z,7.60
2023-12-21T15:50:11.931Z,7.60
2023-12-21T15:53:01.218Z,7.60
2023-12-21T15:55:48.714Z,7.60
2023-12-21T15:58:36.328Z,7.60
2023-12-21T16:01:23.792Z,7.50
2023-12-21T16:04:11.696Z,7.50
2023-12-21T16:06:59.822Z,7.50
2023-12-21T16:09:48.793Z,7.40
2023-12-21T16:12:36.204Z,7.40
2023-12-21T16:15:25.947Z,7.40
2023-12-21T16:18:22.041Z,7.40
2023-12-21T16:21:09.884Z,7.40
2023-12-21T16:23:57.378Z,7.30
2023-12-21T16:26:45.068Z,7.40
2023-12-21T16:29:32.376Z,7.30
2023-12-21T16:32:20.549Z,7.30
2023-12-21T16:35:08.443Z,7.30
2023-12-21T16:37:56.103Z,7.30
2023-12-21T16:40:43.520Z,7.30
2023-12-21T16:43:33.911Z,7.30
2023-12-21T16:46:21.425Z,7.30
2023-12-21T16:49:08.869Z,7.30
2023-12-21T16:51:56.289Z,7.40
2023-12-21T16:54:43.549Z,7.40
2023-12-21T16:57:31.155Z,7.40
2023-12-21T17:00:22.184Z,7.40
2023-12-21T17:03:09.662Z,7.40
2023-12-21T17:05:58.989Z,7.40
2023-12-21T17:08:46.549Z,7.40
2023-12-21T17:11:33.962Z,7.40
2023-12-21T17:14:22.934Z,7.40
2023-12-21T17:17:10.520Z,7.40
2023-12-21T17:19:57.975Z,7.40
2023-12-21T17:22:45.427Z,7.30
2023-12-21T17:25:32.970Z,7.30
2023-12-21T17:28:20.604Z,7.30
2023-12-21T17:31:08.369Z,7.30
2023-12-21T17:33:55.792Z,7.30
2023-12-21T17:36:43.434Z,7.30
2023-12-21T17:39:31.236Z,7.30
2023-12-21T17:42:18.632Z,7.30
2023-12-21T17:45:08.467Z,7.30
2023-12-21T17:47:57.331Z,7.30
2023-12-21T17:50:44.890Z,7.30
2023-12-21T17:53:32.699Z,7.30
2023-12-21T17:56:20.070Z,7.30
2023-12-21T17:59:07.639Z,7.30
2023-12-21T18:01:55.298Z,7.30
2023-12-21T18:04:42.725Z,7.30
2023-12-21T18:07:31.231Z,7.30
2023-12-21T18:10:25.857Z,7.30
2023-12-21T18:13:13.328Z,7.30
2023-12-21T18:16:00.771Z,7.30
2023-12-21T18:18:49.232Z,7.30
2023-12-21T18:21:37.854Z,7.30
2023-12-21T18:24:26.081Z,7.30
2023-12-21T18:27:13.790Z,7.30
2023-12-21T18:30:01.871Z,7.30
2023-12-21T18:32:49.417Z,7.30
2023-12-21T18:35:38.914Z,7.30
2023-12-21T18:38:27.738Z,7.20
2023-12-21T18:41:15.181Z,7.30
2023-12-21T18:44:06.578Z,7.30
2023-12-21T18:46:57.055Z,7.30
2023-12-21T18:49:44.994Z,7.20
2023-12-21T18:52:32.518Z,7.20
2023-12-21T18:55:20.167Z,7.10
2023-12-21T18:58:07.964Z,7.00
2023-12-21T19:00:55.866Z,6.90
2023-12-21T19:03:47.158Z,6.80
2023-12-21T19:06:34.758Z,6.80
2023-12-21T19:09:23.024Z,6.80
2023-12-21T19:12:10.854Z,6.70
2023-12-21T19:14:58.236Z,6.70
2023-12-21T19:17:45.786Z,6.70
2023-12-21T19:20:33.208Z,6.70
2023-12-21T19:23:20.694Z,6.70
2023-12-21T19:26:08.245Z,6.70
2023-12-21T19:28:55.667Z,6.80
2023-12-21T19:31:43.094Z,6.80
2023-12-21T19:34:30.504Z,6.80
2023-12-21T19:37:19.435Z,6.80
2023-12-21T19:40:07.505Z,6.80
2023-12-21T19:42:54.890Z,6.80
2023-12-21T19:45:42.330Z,6.90
2023-12-21T19:48:29.726Z,6.90
2023-12-21T19:51:17.119Z,6.90
2023-12-21T19:54:07.168Z,6.90
2023-12-21T19:56:54.537Z,6.90
2023-12-21T19:59:43.197Z,6.90
2023-12-21T20:02:30.717Z,6.90
2023-12-21T20:05:18.439Z,6.90
2023-12-21T20:08:06.183Z,6.90
2023-12-21T20:10:53.616Z,6.90
2023-12-21T20:13:41.236Z,6.90
2023-12-21T20:16:28.745Z,7.00
2023-12-21T20:19:16.838Z,7.00
2023-12-21T20:22:04.715Z,6.90
2023-12-21T20:24:53.296Z,6.90
2023-12-21T20:27:47.430Z,6.90
2023-12-21T20:30:39.437Z,6.90
2023-12-21T20:33:28.452Z,6.80
2023-12-21T20:36:15.936Z,6.80
2023-12-21T20:39:03.498Z,6.80
2023-12-21T20:41:52.760Z,6.80
2023-12-21T20:44:44.043Z,6.80
2023-12-21T20:47:32.567Z,6.80
2023-12-21T20:50:20.034Z,6.80
2023-12-21T20:53:07.786Z,6.80
2023-12-21T20:55:55.193Z,6.80
2023-12-21T20:58:42.642Z,6.80
2023-12-21T21:01:30.059Z,6.80
2023-12-21T21:04:17.523Z,6.80
2023-12-21T21:07:06.027Z,6.90
2023-12-21T21:09:53.612Z,6.90
2023-12-21T21:12:41.204Z,7.00
2023-12-21T21:15:29.816Z,7.00
2023-12-21T21:18:19.109Z,7.00
2023-12-21T21:21:06.567Z,7.10
2023-12-21T21:23:53.928Z,7.10
2023-12-21T21:26:41.326Z,7.10
2023-12-21T21:29:28.639Z,7.10
2023-12-21T21:32:16.108Z,7.20
2023-12-21T21:35:05.350Z,7.20
2023-12-21T21:37:52.834Z,7.20
2023-12-21T21:40:40.244Z,7.20
2023-12-21T21:43:33.109Z,7.20
2023-12-21T21:46:20.527Z,7.20
2023-12-21T21:49:09.490Z,7.30
2023-12-21T21:51:57.158Z,7.20
2023-12-21T21:54:44.631Z,7.30
2023-12-21T21:57:34.261Z,7.30
2023-12-21T22:00:22.208Z,7.30
2023-12-21T22:03:11.899Z,7.40
2023-12-21T22:05:59.629Z,7.70
2023-12-21T22:08:47.012Z,8.10
2023-12-21T22:11:34.386Z,8.50
2023-12-21T22:14:21.785Z,8.80
2023-12-21T22:17:09.325Z,9.00
2023-12-21T22:19:56.771Z,9.30
2023-12-21T22:22:46.944Z,9.40
2023-12-21T22:25:34.751Z,9.50
2023-12-21T22:28:24.119Z,9.50
2023-12-21T22:31:13.924Z,9.50
2023-12-21T22:34:01.313Z,9.50
2023-12-21T22:36:48.724Z,9.50
2023-12-21T22:39:38.199Z,9.50
2023-12-21T22:42:25.858Z,9.40
2023-12-21T22:45:13.379Z,9.20
2023-12-21T22:48:00.935Z,9.10
2023-12-21T22:50:50.800Z,9.00
2023-12-21T22:53:38.548Z,8.90
2023-12-21T22:56:26.017Z,8.80
2023-12-21T22:59:13.301Z,8.70
2023-12-21T23:02:00.666Z,8.60
2023-12-21T23:04:49.060Z,8.50
2023-12-21T23:07:36.537Z,8.50
2023-12-21T23:10:24.106Z,8.40
2023-12-21T23:13:18.837Z,8.30
2023-12-21T23:16:07.436Z,8.40
2023-12-21T23:18:55.017Z,8.30
2023-12-21T23:21:42.485Z,8.30
2023-12-21T23:24:31.998Z,8.30
2023-12-21T23:27:19.324Z,8.30
2023-12-21T23:30:08.353Z,8.30
2023-12-21T23:32:55.877Z,8.30
2023-12-21T23:35:43.633Z,8.40
2023-12-21T23:38:31.905Z,8.30
2023-12-21T23:41:19.513Z,8.30
2023-12-21T23:44:08.324Z,8.30
2023-12-21T23:46:55.846Z,8.30
2023-12-21T23:49:43.192Z,8.30
2023-12-21T23:52:30.624Z,8.30
2023-12-21T23:55:18.037Z,8.20
2023-12-21T23:58:05.604Z,8.20
